Time;durP1;ratioP1;P1;durP2;ratioP2;P2;SDS_P1;SDS_P2;PMS_P1;PMS_P2;Temp;Humidity;BMP_temperature;BMP_pressure;BME280_temperature;BME280_humidity;BME280_pressure;Samples;Min_cycle;Max_cycle;Signal;HPM_P1;HPM_P2
2022/09/08 00:01:13;;;;;;;5.10;3.30;;;;;;;18.32;100.00;97565.13;5102483;28;20240;-67
2022/09/08 00:03:40;;;;;;;4.23;3.53;;;;;;;18.35;100.00;97567.44;5105161;28;20245;-67
2022/09/08 00:06:11;;;;;;;3.40;3.10;;;;;;;18.31;100.00;97563.47;5102406;28;20261;-67
2022/09/08 00:08:40;;;;;;;3.70;3.27;;;;;;;18.31;100.00;97568.81;5102360;28;20225;-67
2022/09/08 00:11:09;;;;;;;4.53;3.33;;;;;;;18.34;100.00;97573.81;5102260;28;20661;-68
2022/09/08 00:13:39;;;;;;;3.10;2.87;;;;;;;18.38;100.00;97575.16;5102298;28;20568;-67
2022/09/08 00:16:07;;;;;;;3.47;3.07;;;;;;;18.40;100.00;97575.81;5102216;28;20222;-69
2022/09/08 00:18:34;;;;;;;3.20;2.90;;;;;;;18.41;100.00;97564.09;5102114;28;20311;-67
2022/09/08 00:21:01;;;;;;;3.33;3.00;;;;;;;18.37;100.00;97562.78;5101976;28;20356;-67
2022/09/08 00:23:28;;;;;;;3.23;2.73;;;;;;;18.32;100.00;97562.44;5101994;28;20275;-68
2022/09/08 00:25:56;;;;;;;3.20;2.90;;;;;;;18.34;100.00;97568.47;5100208;28;20278;-67
2022/09/08 00:28:23;;;;;;;4.30;3.60;;;;;;;18.28;100.00;97558.41;5101903;28;20304;-68
2022/09/08 00:30:50;;;;;;;4.73;3.70;;;;;;;18.16;100.00;97554.38;5102108;28;20265;-67
2022/09/08 00:33:16;;;;;;;4.10;3.70;;;;;;;18.08;100.00;97567.75;5104239;28;20281;-67
2022/09/08 00:35:43;;;;;;;5.97;3.60;;;;;;;17.99;100.00;97568.72;5101781;28;20227;-67
2022/09/08 00:38:11;;;;;;;4.73;3.73;;;;;;;17.92;100.00;97575.75;5101707;28;20249;-67
2022/09/08 00:40:45;;;;;;;3.87;3.40;;;;;;;17.94;100.00;97579.13;5101720;28;20227;-67
2022/09/08 00:43:30;;;;;;;4.20;3.53;;;;;;;17.99;100.00;97584.78;5100013;28;20218;-67
2022/09/08 00:46:00;;;;;;;4.63;3.37;;;;;;;18.07;100.00;97591.97;5101673;28;20230;-67
2022/09/08 00:48:27;;;;;;;3.97;3.27;;;;;;;18.11;100.00;97588.00;5101571;28;20223;-67
2022/09/08 00:50:54;;;;;;;3.40;3.10;;;;;;;18.11;100.00;97578.09;5102623;28;20326;-67
2022/09/08 00:53:21;;;;;;;4.00;3.00;;;;;;;18.11;100.00;97585.31;5101623;28;20251;-67
2022/09/08 00:55:48;;;;;;;3.40;3.03;;;;;;;18.15;100.00;97587.47;5101417;28;20231;-67
2022/09/08 00:58:16;;;;;;;3.83;3.27;;;;;;;18.18;100.00;97589.00;5101415;28;20227;-66
2022/09/08 01:00:44;;;;;;;3.03;2.80;;;;;;;18.14;100.00;97593.00;5104127;28;20264;-66
2022/09/08 01:03:15;;;;;;;3.80;3.30;;;;;;;18.17;100.00;97614.88;5101343;28;20258;-67
2022/09/08 01:05:49;;;;;;;3.50;3.20;;;;;;;18.19;100.00;97628.09;5101206;28;20252;-67
2022/09/08 01:14:04;;;;;;;3.00;2.70;;;;;;;18.29;100.00;97624.28;5094057;28;20371;-67
2022/09/08 01:16:39;;;;;;;4.60;3.00;;;;;;;18.26;100.00;97618.41;5097346;28;20230;-66
2022/09/08 01:19:07;;;;;;;4.13;3.17;;;;;;;18.21;100.00;97610.91;5101147;28;20564;-66
2022/09/08 01:21:45;;;;;;;3.40;3.10;;;;;;;18.19;100.00;97617.41;5100938;28;20628;-66
2022/09/08 01:24:35;;;;;;;4.10;3.40;;;;;;;18.15;100.00;97621.41;5103466;28;20214;-66
2022/09/08 01:27:14;;;;;;;3.80;3.33;;;;;;;18.14;100.00;97620.59;5096390;28;20565;-66
2022/09/08 01:29:43;;;;;;;4.50;3.50;;;;;;;18.14;100.00;97620.59;5093135;28;20413;-66
2022/09/08 01:32:11;;;;;;;4.13;3.20;;;;;;;18.11;100.00;97615.56;5103544;28;20244;-67
2022/09/08 01:34:39;;;;;;;3.83;3.53;;;;;;;18.07;100.00;97608.88;5100893;28;20561;-66
2022/09/08 01:37:06;;;;;;;4.60;3.50;;;;;;;18.04;100.00;97603.03;5100737;28;20312;-66
2022/09/08 01:39:33;;;;;;;4.03;3.53;;;;;;;18.05;100.00;97610.84;5100705;28;20530;-66
2022/09/08 01:41:59;;;;;;;3.60;3.30;;;;;;;18.06;100.00;97612.56;5103460;28;20249;-67
2022/09/08 01:44:28;;;;;;;3.77;3.27;;;;;;;18.04;100.00;97603.84;5098938;28;20222;-67
2022/09/08 01:46:54;;;;;;;4.33;3.93;;;;;;;18.00;100.00;97599.00;5100510;28;20227;-67
2022/09/08 01:49:21;;;;;;;3.73;3.37;;;;;;;17.96;100.00;97593.16;5100553;28;20266;-68
2022/09/08 01:51:48;;;;;;;4.53;4.00;;;;;;;17.93;100.00;97585.44;5103086;28;20293;-67
2022/09/08 01:54:15;;;;;;;4.23;3.83;;;;;;;17.91;100.00;97589.31;5100393;28;20279;-66
2022/09/08 01:56:41;;;;;;;4.00;3.60;;;;;;;17.87;100.00;97575.41;5100358;28;20303;-67
2022/09/08 01:59:08;;;;;;;4.97;3.90;;;;;;;17.85;100.00;97573.91;5099944;28;20585;-67
2022/09/08 02:01:36;;;;;;;4.83;3.83;;;;;;;17.78;100.00;97579.06;5102841;28;20262;-67
2022/09/08 02:04:03;;;;;;;5.60;3.90;;;;;;;17.74;100.00;97575.03;5092698;28;20231;-66
2022/09/08 02:06:30;;;;;;;4.93;3.87;;;;;;;17.76;100.00;97572.22;5100163;28;20285;-66
2022/09/08 02:08:57;;;;;;;4.03;3.73;;;;;;;17.75;100.00;97566.00;5098502;28;20258;-66
2022/09/08 02:11:23;;;;;;;4.77;3.90;;;;;;;17.73;100.00;97565.34;5102395;28;20262;-66
2022/09/08 02:13:50;;;;;;;4.37;3.97;;;;;;;17.70;100.00;97564.84;5100242;28;20265;-66
2022/09/08 02:16:17;;;;;;;4.70;3.53;;;;;;;17.67;100.00;97558.00;5100002;28;20227;-66
2022/09/08 02:18:46;;;;;;;5.57;3.70;;;;;;;17.62;100.00;97554.97;5091422;28;20234;-66
2022/09/08 02:21:15;;;;;;;5.33;4.20;;;;;;;17.62;100.00;97554.97;5099919;28;20226;-67
2022/09/08 02:23:44;;;;;;;4.67;3.87;;;;;;;17.62;100.00;97546.94;5099895;28;20259;-66
2022/09/08 02:26:15;;;;;;;5.03;3.90;;;;;;;17.60;100.00;97548.13;5099776;28;20262;-67
2022/09/08 02:28:42;;;;;;;4.20;3.80;;;;;;;17.61;100.00;97547.97;5099947;28;20535;-68
2022/09/08 02:31:09;;;;;;;4.30;3.90;;;;;;;17.62;100.00;97544.28;5102465;28;20232;-67
2022/09/08 02:33:36;;;;;;;4.60;4.17;;;;;;;17.61;100.00;97536.44;5099676;28;20245;-67
2022/09/08 02:36:05;;;;;;;4.17;3.73;;;;;;;17.60;100.00;97540.94;5097939;28;20624;-66
2022/09/08 02:38:32;;;;;;;4.60;3.90;;;;;;;17.62;100.00;97546.94;5099788;28;20224;-68
2022/09/08 02:40:59;;;;;;;4.60;4.20;;;;;;;17.58;100.00;97534.09;5102500;28;20253;-68
2022/09/08 02:43:27;;;;;;;3.60;3.30;;;;;;;17.50;100.00;97534.06;5099707;28;20260;-67
2022/09/08 02:45:54;;;;;;;3.67;3.07;;;;;;;17.50;100.00;97540.25;5099557;28;20223;-66
2022/09/08 02:48:20;;;;;;;3.93;3.20;;;;;;;17.48;100.00;97528.88;5099528;28;20315;-66
2022/09/08 02:50:47;;;;;;;3.67;3.23;;;;;;;17.50;100.00;97524.22;5102350;28;20234;-66
2022/09/08 02:53:15;;;;;;;2.63;2.33;;;;;;;17.49;100.00;97527.88;5099581;28;20329;-66
2022/09/08 02:55:43;;;;;;;2.93;2.00;;;;;;;17.52;100.00;97527.56;5099510;28;20306;-66
2022/09/08 02:58:11;;;;;;;3.27;2.30;;;;;;;17.64;100.00;97525.41;5099556;28;20222;-66
2022/09/08 03:00:39;;;;;;;3.30;2.10;;;;;;;17.68;100.00;97524.91;5100684;28;20496;-66
2022/09/08 03:03:07;;;;;;;1.80;1.70;;;;;;;17.74;100.00;97526.94;5099373;28;20222;-66
2022/09/08 03:05:34;;;;;;;3.73;1.70;;;;;;;17.80;100.00;97526.28;5099412;28;20253;-67
2022/09/08 03:08:03;;;;;;;2.33;2.10;;;;;;;17.80;100.00;97520.94;5099388;28;20227;-67
2022/09/08 03:10:32;;;;;;;2.23;1.90;;;;;;;17.87;100.00;97529.94;5102254;28;20264;-67
2022/09/08 03:13:00;;;;;;;2.03;1.80;;;;;;;17.88;100.00;97533.47;5103376;28;20304;-67
2022/09/08 03:15:28;;;;;;;2.77;1.73;;;;;;;17.92;100.00;97541.00;5103400;28;20638;-67
2022/09/08 03:17:54;;;;;;;1.60;1.50;;;;;;;17.92;100.00;97535.66;5103483;28;20258;-67
2022/09/08 03:20:22;;;;;;;2.63;1.40;;;;;;;17.92;100.00;97535.66;5106123;28;20290;-66
2022/09/08 03:22:49;;;;;;;1.93;1.47;;;;;;;17.92;100.00;97530.28;5103238;28;20265;-67
2022/09/08 03:25:17;;;;;;;2.47;1.53;;;;;;;17.91;100.00;97539.31;5103226;28;20245;-67
2022/09/08 03:27:45;;;;;;;2.50;1.43;;;;;;;17.88;100.00;97544.16;5101474;28;20274;-67
2022/09/08 03:30:14;;;;;;;2.37;1.50;;;;;;;17.83;100.00;97547.34;5105896;28;20225;-66
2022/09/08 03:32:42;;;;;;;2.20;1.57;;;;;;;17.77;100.00;97539.97;5102962;28;20242;-67
2022/09/08 03:35:11;;;;;;;2.53;1.50;;;;;;;17.74;100.00;97540.28;5103070;28;20501;-67
2022/09/08 03:37:38;;;;;;;1.97;1.50;;;;;;;17.70;100.00;97535.44;5101062;28;20238;-68
2022/09/08 03:40:06;;;;;;;2.00;1.50;;;;;;;17.64;100.00;97536.97;5102926;28;20232;-67
2022/09/08 03:42:35;;;;;;;1.70;1.40;;;;;;;17.61;100.00;97537.28;5102910;28;20298;-66
2022/09/08 03:45:05;;;;;;;1.80;1.30;;;;;;;17.64;100.00;97530.75;5102799;28;20226;-67
2022/09/08 03:47:32;;;;;;;1.83;1.50;;;;;;;17.66;100.00;97534.94;5103240;28;20227;-67
2022/09/08 03:49:58;;;;;;;1.40;1.30;;;;;;;17.56;100.00;97534.25;5104780;28;20222;-67
2022/09/08 03:52:26;;;;;;;2.33;1.20;;;;;;;17.55;100.00;97527.22;5101886;28;20285;-67
2022/09/08 03:54:53;;;;;;;1.17;1.10;;;;;;;17.55;100.00;97532.56;5101532;28;20262;-66
2022/09/08 03:57:22;;;;;;;1.60;1.50;;;;;;;17.50;100.00;97528.72;5102731;28;20586;-67
2022/09/08 03:59:48;;;;;;;1.87;1.47;;;;;;;17.46;100.00;97532.72;5104718;28;20290;-66
2022/09/08 04:02:17;;;;;;;1.40;1.30;;;;;;;17.41;100.00;97530.53;5102559;28;20288;-66
2022/09/08 04:04:44;;;;;;;1.33;1.23;;;;;;;17.34;100.00;97534.00;5102467;28;20536;-66
2022/09/08 04:07:11;;;;;;;1.43;1.10;;;;;;;17.33;100.00;97530.50;5102720;28;20277;-66
2022/09/08 04:09:37;;;;;;;1.83;1.33;;;;;;;17.31;100.00;97532.47;5104716;28;20569;-67
2022/09/08 04:12:05;;;;;;;2.40;1.13;;;;;;;17.28;100.00;97531.97;5102296;28;20578;-67
2022/09/08 04:14:31;;;;;;;1.43;1.20;;;;;;;17.29;100.00;97537.16;5102349;28;20226;-67
2022/09/08 04:16:58;;;;;;;1.87;1.30;;;;;;;17.24;100.00;97534.13;5102373;28;20226;-67
2022/09/08 04:19:26;;;;;;;1.47;1.37;;;;;;;17.21;100.00;97533.63;5100528;28;20380;-66
2022/09/08 04:21:53;;;;;;;1.83;1.40;;;;;;;17.17;100.00;97537.59;5098922;28;20250;-66
2022/09/08 04:24:20;;;;;;;1.73;1.33;;;;;;;17.13;100.00;97537.06;5102166;28;20382;-66
2022/09/08 04:26:47;;;;;;;1.30;1.20;;;;;;;17.14;100.00;97530.72;5102110;28;20526;-66
2022/09/08 04:29:13;;;;;;;1.53;1.30;;;;;;;17.15;100.00;97540.44;5104781;28;20688;-66
2022/09/08 04:31:40;;;;;;;1.53;1.20;;;;;;;17.16;100.00;97523.41;5101996;28;20258;-66
2022/09/08 04:34:07;;;;;;;1.37;1.00;;;;;;;17.17;100.00;97538.44;5101787;28;20327;-66
2022/09/08 04:36:35;;;;;;;1.50;1.40;;;;;;;17.11;100.00;97538.22;5101997;28;20261;-66
2022/09/08 04:39:02;;;;;;;1.40;1.30;;;;;;;17.15;100.00;97540.44;5104749;28;20615;-66
2022/09/08 04:41:31;;;;;;;2.27;1.33;;;;;;;17.11;100.00;97538.22;5101742;28;20291;-66
2022/09/08 04:44:00;;;;;;;2.50;1.30;;;;;;;17.08;100.00;97539.38;5101658;28;20225;-67
2022/09/08 04:46:27;;;;;;;1.20;1.10;;;;;;;17.07;100.00;97536.91;5100056;28;20226;-68
2022/09/08 04:48:54;;;;;;;1.50;1.33;;;;;;;17.05;100.00;97547.72;5104443;28;20257;-67
2022/09/08 04:51:21;;;;;;;2.37;1.20;;;;;;;17.03;100.00;97546.22;5101484;28;20335;-67
2022/09/08 04:53:51;;;;;;;2.53;1.47;;;;;;;17.05;100.00;97539.72;5101454;28;20247;-67
2022/09/08 04:56:19;;;;;;;2.80;1.57;;;;;;;17.00;100.00;97538.53;5101443;28;20230;-67
2022/09/08 04:58:46;;;;;;;1.67;1.30;;;;;;;16.99;100.00;97544.84;5101465;28;20533;-67
2022/09/08 05:01:15;;;;;;;2.03;1.20;;;;;;;16.97;100.00;97541.53;5101498;28;20227;-68
2022/09/08 05:03:42;;;;;;;3.23;1.50;;;;;;;16.94;100.00;97542.66;5101289;28;20280;-67
2022/09/08 05:06:10;;;;;;;1.30;1.20;;;;;;;16.96;100.00;97546.00;5101507;28;20235;-68
2022/09/08 05:08:38;;;;;;;2.33;1.23;;;;;;;16.86;100.00;97545.31;5103465;28;20226;-70
2022/09/08 05:11:06;;;;;;;1.37;1.20;;;;;;;16.84;100.00;97558.00;5099502;28;20226;-68
2022/09/08 05:13:33;;;;;;;2.20;1.40;;;;;;;16.81;100.00;97555.63;5100902;28;20246;-69
2022/09/08 05:16:03;;;;;;;1.30;1.20;;;;;;;16.87;100.00;97557.66;5101323;28;20253;-69
2022/09/08 05:18:30;;;;;;;2.50;1.47;;;;;;;16.86;100.00;97561.31;5102831;28;20213;-69
2022/09/08 05:20:57;;;;;;;2.00;1.40;;;;;;;16.93;100.00;97566.84;5100973;28;20223;-69
2022/09/08 05:23:24;;;;;;;1.77;1.40;;;;;;;16.95;100.00;97571.03;5100922;28;20223;-69
2022/09/08 05:25:56;;;;;;;1.40;1.30;;;;;;;16.98;100.00;97580.56;5101304;28;20280;-71
2022/09/08 05:28:25;;;;;;;1.73;1.30;;;;;;;16.97;100.00;97585.06;5102414;28;20336;-68
2022/09/08 05:30:52;;;;;;;2.17;1.33;;;;;;;16.97;100.00;97590.41;5100876;28;20276;-69
2022/09/08 05:33:19;;;;;;;2.30;1.40;;;;;;;17.01;100.00;97596.28;5100186;28;20260;-69
2022/09/08 05:35:46;;;;;;;2.00;1.23;;;;;;;16.98;100.00;97597.44;5101724;28;20226;-70
2022/09/08 05:38:13;;;;;;;1.53;1.40;;;;;;;17.01;100.00;97591.75;5100565;28;20225;-68
2022/09/08 05:40:40;;;;;;;2.10;1.60;;;;;;;17.00;100.00;97600.75;5100753;28;20223;-70
2022/09/08 05:43:07;;;;;;;2.57;1.50;;;;;;;17.02;100.00;97604.09;5100729;28;20575;-68
2022/09/08 05:45:36;;;;;;;1.70;1.40;;;;;;;17.03;100.00;97610.28;5101425;28;20227;-68
2022/09/08 05:48:03;;;;;;;3.20;1.63;;;;;;;17.03;100.00;97620.97;5102181;28;20308;-67
2022/09/08 05:50:34;;;;;;;2.50;1.40;;;;;;;17.06;100.00;97620.66;5100540;28;20626;-67
2022/09/08 05:53:01;;;;;;;2.40;1.50;;;;;;;17.03;100.00;97616.47;5100228;28;20250;-67
2022/09/08 05:55:28;;;;;;;2.13;1.50;;;;;;;17.05;100.00;97624.31;5101594;28;20237;-67
2022/09/08 05:57:54;;;;;;;1.77;1.60;;;;;;;17.07;100.00;97625.84;5101487;28;20226;-67
2022/09/08 06:00:22;;;;;;;3.40;1.70;;;;;;;17.07;100.00;97625.84;5100206;28;20226;-67
2022/09/08 06:02:51;;;;;;;2.83;1.70;;;;;;;17.10;100.00;97640.69;5098423;28;20309;-68
2022/09/08 06:05:18;;;;;;;1.87;1.50;;;;;;;17.12;100.00;97636.06;5101756;28;20543;-67
2022/09/08 06:07:45;;;;;;;2.63;1.83;;;;;;;17.13;100.00;97643.88;5101332;28;20218;-67
2022/09/08 06:10:11;;;;;;;1.80;1.60;;;;;;;17.15;100.00;97641.06;5100235;28;20226;-67
2022/09/08 06:12:38;;;;;;;3.23;1.70;;;;;;;17.14;100.00;97640.22;5100050;28;20257;-66
2022/09/08 06:15:06;;;;;;;2.97;1.40;;;;;;;17.13;100.00;97646.56;5100747;28;20222;-67
2022/09/08 06:17:33;;;;;;;2.10;1.60;;;;;;;17.14;100.00;97642.88;5101517;28;20230;-67
2022/09/08 06:20:01;;;;;;;2.73;2.00;;;;;;;17.11;100.00;97645.03;5100036;28;20249;-67
2022/09/08 06:22:31;;;;;;;2.57;1.90;;;;;;;17.09;100.00;97644.38;5097125;28;20222;-67
2022/09/08 06:24:58;;;;;;;2.50;1.70;;;;;;;17.07;100.00;97643.72;5101247;28;20616;-67
2022/09/08 06:27:38;;;;;;;3.30;2.03;;;;;;;17.06;100.00;97656.19;5101083;28;20218;-67
2022/09/08 06:30:11;;;;;;;3.07;1.93;;;;;;;17.05;100.00;97653.69;5098008;28;20283;-67
2022/09/08 06:32:40;;;;;;;3.23;2.10;;;;;;;17.06;100.00;97655.38;5099850;28;20500;-67
2022/09/08 06:35:13;;;;;;;1.87;1.60;;;;;;;17.05;100.00;97646.53;5099763;28;20242;-67
2022/09/08 06:37:47;;;;;;;2.63;1.33;;;;;;;17.03;100.00;97642.34;5099818;28;20222;-67
2022/09/08 06:40:20;;;;;;;2.43;1.40;;;;;;;16.99;100.00;97647.16;5099694;28;20597;-67
2022/09/08 06:42:52;;;;;;;1.70;1.60;;;;;;;16.91;100.00;97647.09;5101973;28;20227;-67
2022/09/08 06:45:25;;;;;;;1.30;1.20;;;;;;;16.80;100.00;97652.69;5092329;28;20287;-68
2022/09/08 06:48:16;;;;;;;2.47;1.60;;;;;;;16.68;100.00;97645.94;5099896;28;20295;-67
2022/09/08 06:50:55;;;;;;;1.17;1.03;;;;;;;16.71;100.00;97652.78;5102453;28;20752;-68
2022/09/08 06:53:26;;;;;;;2.43;1.33;;;;;;;16.69;100.00;97666.28;5094084;28;20358;-67
2022/09/08 06:55:59;;;;;;;2.30;1.13;;;;;;;16.70;100.00;97662.63;5097882;28;20525;-67
2022/09/08 06:58:30;;;;;;;1.40;1.30;;;;;;;16.74;100.00;97650.66;5101254;28;20231;-67
2022/09/08 07:01:01;;;;;;;1.40;1.00;;;;;;;16.76;100.00;97651.31;5100171;28;20227;-69
2022/09/08 07:03:43;;;;;;;1.83;1.10;;;;;;;16.82;100.00;97666.72;5099544;28;20225;-68
2022/09/08 07:06:13;;;;;;;1.20;1.10;;;;;;;16.96;100.00;97658.13;5099684;28;20505;-68
2022/09/08 07:09:02;;;;;;;1.07;1.07;;;;;;;17.04;100.00;97668.88;5101393;28;20297;-69
2022/09/08 07:11:46;;;;;;;0.90;0.90;;;;;;;17.14;100.00;97666.91;5099294;28;20226;-69
2022/09/08 07:14:40;;;;;;;0.90;0.80;;;;;;;17.22;100.00;97680.34;5101135;28;20647;-69
2022/09/08 07:17:18;;;;;;;1.73;0.90;;;;;;;17.28;100.00;97687.72;5071016;28;20222;-69
2022/09/08 07:19:49;;;;;;;0.60;0.60;;;;;;;17.33;100.00;97674.75;5091397;28;20385;-68
2022/09/08 07:22:28;;;;;;;0.70;0.70;;;;;;;17.38;100.00;97677.78;5100361;28;20222;-69
2022/09/08 07:25:15;;;;;;;1.13;0.80;;;;;;;17.40;100.00;97682.97;5097944;28;20262;-67
2022/09/08 07:27:44;;;;;;;0.63;0.60;;;;;;;17.43;100.00;97688.00;5089753;28;20257;-67
2022/09/08 07:30:15;;;;;;;1.47;0.90;;;;;;;17.40;100.00;97689.16;5095450;28;21032;-67
2022/09/08 07:32:44;;;;;;;0.60;0.60;;;;;;;17.43;100.00;97682.66;5098391;28;20257;-68
2022/09/08 07:35:20;;;;;;;1.07;0.80;;;;;;;17.47;100.00;97687.53;5098963;28;20242;-68
2022/09/08 07:37:52;;;;;;;0.80;0.60;;;;;;;17.56;100.00;97683.88;5100049;28;20632;-67
2022/09/08 07:40:22;;;;;;;1.70;0.70;;;;;;;17.63;100.00;97687.59;5098729;28;20235;-67
2022/09/08 07:42:51;;;;;;;1.17;0.70;;;;;;;17.72;100.00;97699.16;5101265;28;20222;-68
2022/09/08 07:45:18;;;;;;;0.80;0.70;;;;;;;17.79;100.00;97701.03;5099228;28;20222;-67
2022/09/08 07:48:02;;;;;;;0.90;0.70;;;;;;;17.89;100.00;97699.06;5097630;28;20223;-67
2022/09/08 07:53:45;;;;;;;1.10;0.60;;;;;;;17.94;100.00;97707.47;5088330;28;20332;-67
2022/09/08 07:56:15;;;;;;;0.90;0.83;;;;;;;18.03;100.00;97698.44;5099759;28;20462;-67
2022/09/08 07:58:51;;;;;;;1.47;0.80;;;;;;;18.18;100.00;97701.34;5104790;28;20564;-66
2022/09/08 08:01:32;;;;;;;0.60;0.60;;;;;;;18.38;100.00;97710.78;5103016;28;20228;-65
2022/09/08 08:04:14;;;;;;;1.80;0.77;;;;;;;18.58;100.00;97704.94;5103091;28;20222;-65
2022/09/08 08:06:47;;;;;;;1.07;0.70;;;;;;;18.64;100.00;97717.66;5101598;28;20283;-66
2022/09/08 08:09:28;;;;;;;0.67;0.67;;;;;;;18.87;98.78;97726.72;5102892;28;20340;-65
2022/09/08 08:12:03;;;;;;;1.60;0.60;;;;;;;19.14;98.56;97734.41;5103068;28;20568;-65
2022/09/08 08:14:40;;;;;;;0.77;0.67;;;;;;;19.38;94.24;97726.38;5102421;28;20246;-65
2022/09/08 08:17:27;;;;;;;1.00;0.90;;;;;;;19.65;94.10;97734.03;5102561;28;20225;-65
2022/09/08 08:20:06;;;;;;;0.60;0.60;;;;;;;19.60;93.45;97731.03;5103774;28;20624;-65
2022/09/08 08:22:49;;;;;;;0.80;0.53;;;;;;;19.32;93.26;97736.94;5108868;28;20561;-65
2022/09/08 08:25:24;;;;;;;0.83;0.53;;;;;;;19.13;93.42;97738.09;5101134;28;20223;-64
2022/09/08 08:28:00;;;;;;;0.60;0.60;;;;;;;19.09;95.32;97741.28;5101674;28;20221;-65
2022/09/08 08:30:28;;;;;;;2.40;0.80;;;;;;;19.01;93.03;97734.09;5087708;28;20255;-65
2022/09/08 08:33:01;;;;;;;0.97;0.67;;;;;;;18.78;92.68;97735.75;5100996;28;20234;-65
2022/09/08 08:35:36;;;;;;;1.20;0.60;;;;;;;18.72;91.20;97749.78;5100911;28;20602;-64
2022/09/08 08:38:05;;;;;;;2.10;0.60;;;;;;;18.70;92.57;97750.97;5098889;28;20278;-65
2022/09/08 08:40:45;;;;;;;0.80;0.53;;;;;;;18.83;94.65;97751.34;5098702;28;20231;-65
2022/09/08 08:43:37;;;;;;;1.00;0.60;;;;;;;18.98;92.63;97745.16;5100386;28;20214;-65
2022/09/08 08:46:22;;;;;;;0.70;0.70;;;;;;;19.06;93.03;97747.81;5100216;28;20254;-66
2022/09/08 08:49:03;;;;;;;0.80;0.80;;;;;;;19.28;90.88;97757.03;5100798;28;20280;-65
2022/09/08 08:51:55;;;;;;;0.60;0.60;;;;;;;19.61;91.30;97753.28;5102450;28;20286;-64
2022/09/08 08:54:45;;;;;;;0.57;0.57;;;;;;;20.11;88.91;97749.31;5090321;28;20246;-66
2022/09/08 08:57:34;;;;;;;0.70;0.50;;;;;;;20.53;86.41;97751.59;5101514;28;20558;-65
2022/09/08 09:00:29;;;;;;;0.60;0.60;;;;;;;20.96;83.03;97749.16;5086478;28;20270;-64
2022/09/08 09:03:43;;;;;;;0.50;0.50;;;;;;;21.66;77.81;97747.88;5079012;28;20235;-64
2022/09/08 09:06:37;;;;;;;1.33;0.70;;;;;;;22.07;75.06;97746.38;5088622;28;20226;-65
2022/09/08 09:09:32;;;;;;;0.60;0.50;;;;;;;22.10;71.47;97756.81;5100727;28;20543;-64
2022/09/08 09:12:26;;;;;;;0.70;0.70;;;;;;;21.96;71.82;97754.97;5089438;28;20230;-65
2022/09/08 09:15:20;;;;;;;0.93;0.60;;;;;;;21.62;71.31;97762.69;5100627;28;20327;-66
2022/09/08 09:18:10;;;;;;;1.13;0.60;;;;;;;21.16;71.99;97771.03;5086143;28;20309;-64
2022/09/08 09:20:48;;;;;;;0.50;0.50;;;;;;;20.91;75.64;97767.66;5100154;28;20214;-64
2022/09/08 09:23:34;;;;;;;1.00;0.57;;;;;;;20.71;74.57;97765.59;5099544;28;20257;-64
2022/09/08 09:26:07;;;;;;;0.53;0.53;;;;;;;20.68;75.82;97772.19;5100073;28;20720;-65
2022/09/08 09:28:57;;;;;;;0.60;0.50;;;;;;;20.72;75.72;97772.66;5099897;28;20620;-64
2022/09/08 09:31:47;;;;;;;0.60;0.60;;;;;;;20.79;76.24;97770.94;5086875;28;20632;-65
2022/09/08 09:34:36;;;;;;;1.93;0.60;;;;;;;20.92;77.18;97774.72;5042847;28;20323;-65
2022/09/08 09:37:26;;;;;;;1.00;0.70;;;;;;;20.85;75.02;97779.09;5082746;28;20231;-65
2022/09/08 09:40:11;;;;;;;1.07;0.73;;;;;;;20.31;77.61;97765.84;5099678;28;20229;-65
2022/09/08 09:43:03;;;;;;;0.70;0.60;;;;;;;19.78;79.76;97766.50;5102126;28;20312;-65
2022/09/08 09:45:45;;;;;;;1.60;0.80;;;;;;;19.60;82.83;97763.19;5089264;28;20300;-65
2022/09/08 09:48:26;;;;;;;0.63;0.60;;;;;;;19.67;82.48;97774.91;5099526;28;20655;-65
2022/09/08 09:51:04;;;;;;;1.90;0.53;;;;;;;20.13;80.93;97768.78;5098230;28;20612;-65
2022/09/08 09:53:58;;;;;;;0.67;0.60;;;;;;;20.65;79.22;97767.16;5099604;28;20245;-65
2022/09/08 09:57:07;;;;;;;1.97;0.53;;;;;;;20.89;75.29;97767.03;5101922;28;20314;-66
2022/09/08 10:00:05;;;;;;;1.20;0.63;;;;;;;20.72;77.74;97772.66;5089865;28;20631;-64
2022/09/08 10:03:09;;;;;;;1.00;0.60;;;;;;;20.54;77.62;97774.78;5096671;28;20265;-64
2022/09/08 10:06:17;;;;;;;0.93;0.70;;;;;;;20.21;78.82;97766.06;5099183;28;20250;-65
2022/09/08 10:09:13;;;;;;;2.20;0.70;;;;;;;20.04;79.45;97759.03;5099124;28;20223;-66
2022/09/08 10:12:18;;;;;;;2.77;0.60;;;;;;;20.11;78.05;97746.63;5052739;28;20284;-64
2022/09/08 10:15:19;;;;;;;1.60;0.60;;;;;;;20.11;78.44;97743.94;5085328;28;20682;-65
2022/09/08 10:18:16;;;;;;;0.60;0.60;;;;;;;20.32;79.33;97741.50;5099183;28;20282;-64
2022/09/08 10:20:58;;;;;;;1.67;0.60;;;;;;;20.55;77.77;97745.03;5086928;28;20527;-66
2022/09/08 10:24:08;;;;;;;0.60;0.50;;;;;;;20.86;70.90;97748.53;5093334;28;20279;-66
2022/09/08 10:27:16;;;;;;;1.37;0.90;;;;;;;21.11;69.34;97754.59;5085180;28;20291;-66
2022/09/08 10:30:20;;;;;;;0.73;0.60;;;;;;;21.31;66.31;97740.47;5100295;28;20628;-64
2022/09/08 10:33:29;;;;;;;0.70;0.53;;;;;;;21.47;66.27;97753.75;5031258;28;20518;-66
2022/09/08 10:36:02;;;;;;;1.30;0.70;;;;;;;21.78;67.81;97746.41;4993978;28;20662;-65
2022/09/08 10:38:53;;;;;;;1.03;0.60;;;;;;;21.98;65.64;97747.53;4996780;28;20226;-67
2022/09/08 10:41:59;;;;;;;1.63;0.73;;;;;;;22.12;63.28;97748.56;5069328;28;20233;-65
2022/09/08 10:44:42;;;;;;;1.57;0.70;;;;;;;22.04;63.91;97741.41;5087724;28;20250;-65
2022/09/08 10:47:55;;;;;;;1.00;0.80;;;;;;;22.09;64.44;97744.38;5098751;28;20653;-65
2022/09/08 10:50:24;;;;;;;1.47;0.50;;;;;;;22.04;63.12;97757.53;5088163;28;20283;-65
2022/09/08 10:53:07;;;;;;;0.73;0.70;;;;;;;21.66;64.70;97753.25;5097133;28;20250;-66
2022/09/08 10:55:52;;;;;;;0.50;0.50;;;;;;;21.53;67.01;97752.19;5095229;28;20277;-65
2022/09/08 10:58:39;;;;;;;1.67;0.70;;;;;;;21.65;65.65;97746.16;5098662;28;20535;-65
2022/09/08 11:01:30;;;;;;;1.37;0.60;;;;;;;21.73;66.72;97754.22;5099288;28;20247;-65
2022/09/08 11:04:27;;;;;;;0.50;0.50;;;;;;;21.48;68.18;97762.66;5086404;28;20620;-65
2022/09/08 11:07:12;;;;;;;1.13;0.80;;;;;;;21.24;70.09;97771.78;5093424;28;20701;-71
2022/09/08 11:09:53;;;;;;;1.03;0.70;;;;;;;21.03;70.90;97771.59;5101226;28;20271;-72
2022/09/08 11:12:37;;;;;;;1.73;0.70;;;;;;;20.92;71.73;97769.34;5103345;28;20258;-74
2022/09/08 11:15:42;;;;;;;0.60;0.60;;;;;;;20.90;71.05;97766.00;5100847;28;20241;-70
2022/09/08 11:18:26;;;;;;;1.83;0.80;;;;;;;21.01;72.38;97762.06;5083595;28;20564;-71
2022/09/08 11:20:56;;;;;;;1.40;0.77;;;;;;;21.07;71.36;97764.88;5100199;28;20259;-66
2022/09/08 11:23:37;;;;;;;2.37;1.00;;;;;;;21.34;68.43;97763.47;5097620;28;20262;-65
2022/09/08 11:26:31;;;;;;;1.70;0.87;;;;;;;21.47;64.65;97764.50;5098395;28;20225;-65
2022/09/08 11:29:05;;;;;;;0.93;0.60;;;;;;;21.59;66.71;97751.47;5063434;28;20218;-65
2022/09/08 11:31:46;;;;;;;3.83;0.80;;;;;;;21.96;63.32;97759.50;5098622;28;20232;-65
2022/09/08 11:34:44;;;;;;;3.53;0.90;;;;;;;22.02;61.56;97754.22;5102192;28;20564;-63
2022/09/08 11:37:51;;;;;;;0.80;0.53;;;;;;;22.19;62.48;97755.66;5101690;28;20283;-64
2022/09/08 11:40:54;;;;;;;1.33;0.70;;;;;;;22.54;59.88;97757.59;5102221;28;20573;-65
2022/09/08 11:43:37;;;;;;;1.43;0.57;;;;;;;22.71;56.46;97756.34;5090507;28;20338;-64
2022/09/08 11:46:26;;;;;;;0.80;0.70;;;;;;;22.77;55.69;97752.88;5100263;28;20226;-66
2022/09/08 11:49:24;;;;;;;1.33;0.80;;;;;;;22.74;55.82;97760.53;5100515;28;20251;-65
2022/09/08 11:52:04;;;;;;;2.10;0.70;;;;;;;22.64;56.47;97760.00;5094954;28;20250;-65
2022/09/08 11:54:54;;;;;;;1.70;0.60;;;;;;;22.46;58.03;97763.09;5104920;28;20228;-65
2022/09/08 11:57:31;;;;;;;1.27;0.77;;;;;;;22.43;57.79;97758.06;5101851;28;20551;-65
2022/09/08 12:00:12;;;;;;;1.07;0.77;;;;;;;22.24;57.97;97758.63;5101693;28;20222;-65
2022/09/08 12:03:15;;;;;;;1.77;0.70;;;;;;;22.00;58.77;97748.16;5100482;28;20275;-65
2022/09/08 12:05:59;;;;;;;2.23;0.80;;;;;;;21.87;59.49;97756.06;5101723;28;20226;-65
2022/09/08 12:08:50;;;;;;;4.17;0.90;;;;;;;21.67;60.19;97746.03;5099215;28;20247;-65
2022/09/08 12:11:30;;;;;;;1.47;0.70;;;;;;;21.54;59.94;97753.88;5099346;28;20262;-65
2022/09/08 12:14:08;;;;;;;1.93;0.77;;;;;;;21.60;60.79;97753.97;5103078;28;20359;-65